sensor_id;sensor_type;location;lat;lon;timestamp;P1;durP1;ratioP1;P2;durP2;ratioP2
71947;SDS011;63257;55.082;38.772;2023-05-07T00:01:35;7.88;;;3.03;;
71947;SDS011;63257;55.082;38.772;2023-05-07T00:04:01;10.13;;;3.90;;
71947;SDS011;63257;55.082;38.772;2023-05-07T00:06:29;9.20;;;3.95;;
71947;SDS011;63257;55.082;38.772;2023-05-07T00:08:56;8.00;;;3.70;;
71947;SDS011;63257;55.082;38.772;2023-05-07T00:11:22;8.15;;;3.53;;
71947;SDS011;63257;55.082;38.772;2023-05-07T00:13:48;9.13;;;3.90;;
71947;SDS011;63257;55.082;38.772;2023-05-07T00:16:14;8.48;;;3.58;;
71947;SDS011;63257;55.082;38.772;2023-05-07T00:18:40;11.20;;;4.37;;
71947;SDS011;63257;55.082;38.772;2023-05-07T00:21:06;7.50;;;3.28;;
71947;SDS011;63257;55.082;38.772;2023-05-07T00:23:32;9.73;;;4.00;;
71947;SDS011;63257;55.082;38.772;2023-05-07T00:25:57;10.55;;;4.68;;
71947;SDS011;63257;55.082;38.772;2023-05-07T00:28:23;9.80;;;4.00;;
71947;SDS011;63257;55.082;38.772;2023-05-07T00:30:50;7.82;;;3.78;;
71947;SDS011;63257;55.082;38.772;2023-05-07T00:33:16;10.35;;;4.70;;
71947;SDS011;63257;55.082;38.772;2023-05-07T00:35:42;9.43;;;4.00;;
71947;SDS011;63257;55.082;38.772;2023-05-07T00:38:08;11.02;;;4.40;;
71947;SDS011;63257;55.082;38.772;2023-05-07T00:40:34;10.85;;;4.70;;
71947;SDS011;63257;55.082;38.772;2023-05-07T00:43:00;10.82;;;4.55;;
71947;SDS011;63257;55.082;38.772;2023-05-07T00:45:26;8.23;;;4.50;;
71947;SDS011;63257;55.082;38.772;2023-05-07T00:47:57;8.52;;;4.47;;
71947;SDS011;63257;55.082;38.772;2023-05-07T00:50:28;9.23;;;4.73;;
71947;SDS011;63257;55.082;38.772;2023-05-07T00:52:54;11.18;;;4.80;;
71947;SDS011;63257;55.082;38.772;2023-05-07T00:55:21;11.43;;;4.65;;
71947;SDS011;63257;55.082;38.772;2023-05-07T00:57:49;11.18;;;4.95;;
71947;SDS011;63257;55.082;38.772;2023-05-07T01:00:16;11.85;;;5.20;;
71947;SDS011;63257;55.082;38.772;2023-05-07T01:02:43;10.20;;;4.53;;
71947;SDS011;63257;55.082;38.772;2023-05-07T01:05:10;11.52;;;4.38;;
71947;SDS011;63257;55.082;38.772;2023-05-07T01:07:38;11.07;;;4.27;;
71947;SDS011;63257;55.082;38.772;2023-05-07T01:10:06;10.05;;;4.25;;
71947;SDS011;63257;55.082;38.772;2023-05-07T01:12:33;12.48;;;5.07;;
71947;SDS011;63257;55.082;38.772;2023-05-07T01:15:01;11.20;;;4.07;;
71947;SDS011;63257;55.082;38.772;2023-05-07T01:17:33;8.68;;;4.30;;
71947;SDS011;63257;55.082;38.772;2023-05-07T01:20:01;11.13;;;4.80;;
71947;SDS011;63257;55.082;38.772;2023-05-07T01:22:32;11.43;;;4.93;;
71947;SDS011;63257;55.082;38.772;2023-05-07T01:25:03;11.38;;;4.25;;
71947;SDS011;63257;55.082;38.772;2023-05-07T01:27:33;10.68;;;4.95;;
71947;SDS011;63257;55.082;38.772;2023-05-07T01:30:01;10.07;;;5.10;;
71947;SDS011;63257;55.082;38.772;2023-05-07T01:35:10;12.10;;;4.95;;
71947;SDS011;63257;55.082;38.772;2023-05-07T01:37:39;11.65;;;4.40;;
71947;SDS011;63257;55.082;38.772;2023-05-07T01:40:06;10.97;;;4.33;;
71947;SDS011;63257;55.082;38.772;2023-05-07T01:42:33;11.80;;;5.25;;
71947;SDS011;63257;55.082;38.772;2023-05-07T01:44:59;11.25;;;4.38;;
71947;SDS011;63257;55.082;38.772;2023-05-07T01:47:25;11.68;;;4.82;;
71947;SDS011;63257;55.082;38.772;2023-05-07T01:49:52;11.05;;;4.20;;
71947;SDS011;63257;55.082;38.772;2023-05-07T01:52:18;12.70;;;4.53;;
71947;SDS011;63257;55.082;38.772;2023-05-07T01:54:44;10.00;;;3.70;;
71947;SDS011;63257;55.082;38.772;2023-05-07T01:57:10;12.30;;;5.00;;
71947;SDS011;63257;55.082;38.772;2023-05-07T01:59:36;8.63;;;3.30;;
71947;SDS011;63257;55.082;38.772;2023-05-07T02:02:02;14.07;;;5.40;;
71947;SDS011;63257;55.082;38.772;2023-05-07T02:04:29;11.43;;;4.83;;
71947;SDS011;63257;55.082;38.772;2023-05-07T02:06:55;12.07;;;4.88;;
71947;SDS011;63257;55.082;38.772;2023-05-07T02:09:21;9.65;;;3.72;;
71947;SDS011;63257;55.082;38.772;2023-05-07T02:11:49;9.60;;;4.10;;
71947;SDS011;63257;55.082;38.772;2023-05-07T02:14:16;9.75;;;4.38;;
71947;SDS011;63257;55.082;38.772;2023-05-07T02:16:42;12.20;;;5.13;;
71947;SDS011;63257;55.082;38.772;2023-05-07T02:19:10;11.50;;;5.03;;
71947;SDS011;63257;55.082;38.772;2023-05-07T02:21:36;12.77;;;5.03;;
71947;SDS011;63257;55.082;38.772;2023-05-07T02:24:02;11.02;;;5.28;;
71947;SDS011;63257;55.082;38.772;2023-05-07T02:26:31;11.77;;;4.63;;
71947;SDS011;63257;55.082;38.772;2023-05-07T02:28:57;10.50;;;4.13;;
71947;SDS011;63257;55.082;38.772;2023-05-07T02:31:23;10.57;;;4.50;;
71947;SDS011;63257;55.082;38.772;2023-05-07T02:33:49;12.57;;;5.00;;
71947;SDS011;63257;55.082;38.772;2023-05-07T02:36:15;12.35;;;5.22;;
71947;SDS011;63257;55.082;38.772;2023-05-07T02:38:50;13.10;;;5.30;;
71947;SDS011;63257;55.082;38.772;2023-05-07T02:41:16;11.53;;;4.87;;
71947;SDS011;63257;55.082;38.772;2023-05-07T02:43:42;8.85;;;4.00;;
71947;SDS011;63257;55.082;38.772;2023-05-07T02:46:09;11.77;;;4.55;;
71947;SDS011;63257;55.082;38.772;2023-05-07T02:48:39;11.23;;;5.07;;
71947;SDS011;63257;55.082;38.772;2023-05-07T02:51:05;12.77;;;5.28;;
71947;SDS011;63257;55.082;38.772;2023-05-07T02:53:32;16.17;;;5.45;;
71947;SDS011;63257;55.082;38.772;2023-05-07T02:55:58;12.98;;;5.35;;
71947;SDS011;63257;55.082;38.772;2023-05-07T02:58:25;16.35;;;5.78;;
71947;SDS011;63257;55.082;38.772;2023-05-07T03:00:52;15.38;;;5.97;;
71947;SDS011;63257;55.082;38.772;2023-05-07T03:03:40;12.77;;;5.10;;
71947;SDS011;63257;55.082;38.772;2023-05-07T03:06:05;10.73;;;5.00;;
71947;SDS011;63257;55.082;38.772;2023-05-07T03:08:32;13.93;;;5.43;;
71947;SDS011;63257;55.082;38.772;2023-05-07T03:10:58;10.15;;;4.13;;
71947;SDS011;63257;55.082;38.772;2023-05-07T03:13:24;10.95;;;5.25;;
71947;SDS011;63257;55.082;38.772;2023-05-07T03:15:51;11.65;;;4.90;;
71947;SDS011;63257;55.082;38.772;2023-05-07T03:18:17;15.43;;;5.15;;
71947;SDS011;63257;55.082;38.772;2023-05-07T03:20:42;10.50;;;4.82;;
71947;SDS011;63257;55.082;38.772;2023-05-07T03:23:08;11.20;;;5.30;;
71947;SDS011;63257;55.082;38.772;2023-05-07T03:25:35;10.70;;;4.45;;
71947;SDS011;63257;55.082;38.772;2023-05-07T03:28:01;11.33;;;5.13;;
71947;SDS011;63257;55.082;38.772;2023-05-07T03:30:36;10.90;;;5.22;;
71947;SDS011;63257;55.082;38.772;2023-05-07T03:33:01;11.27;;;4.72;;
71947;SDS011;63257;55.082;38.772;2023-05-07T03:35:27;10.55;;;4.70;;
71947;SDS011;63257;55.082;38.772;2023-05-07T03:37:53;12.38;;;5.40;;
71947;SDS011;63257;55.082;38.772;2023-05-07T03:40:20;11.45;;;5.30;;
71947;SDS011;63257;55.082;38.772;2023-05-07T03:42:50;10.53;;;5.07;;
71947;SDS011;63257;55.082;38.772;2023-05-07T03:45:18;12.45;;;5.00;;
71947;SDS011;63257;55.082;38.772;2023-05-07T03:47:50;13.30;;;5.22;;
71947;SDS011;63257;55.082;38.772;2023-05-07T03:50:19;10.77;;;5.03;;
71947;SDS011;63257;55.082;38.772;2023-05-07T03:52:45;14.38;;;5.45;;
71947;SDS011;63257;55.082;38.772;2023-05-07T03:55:12;11.55;;;4.53;;
71947;SDS011;63257;55.082;38.772;2023-05-07T03:57:42;12.90;;;4.57;;
71947;SDS011;63257;55.082;38.772;2023-05-07T04:00:08;7.10;;;3.38;;
71947;SDS011;63257;55.082;38.772;2023-05-07T04:02:46;11.60;;;4.65;;
71947;SDS011;63257;55.082;38.772;2023-05-07T04:05:14;12.13;;;5.35;;
71947;SDS011;63257;55.082;38.772;2023-05-07T04:07:42;14.55;;;5.32;;
71947;SDS011;63257;55.082;38.772;2023-05-07T04:10:10;13.55;;;6.80;;
71947;SDS011;63257;55.082;38.772;2023-05-07T04:12:39;11.35;;;4.47;;
71947;SDS011;63257;55.082;38.772;2023-05-07T04:15:06;12.37;;;4.97;;
71947;SDS011;63257;55.082;38.772;2023-05-07T04:17:33;9.63;;;4.20;;
71947;SDS011;63257;55.082;38.772;2023-05-07T04:20:00;9.00;;;3.70;;
71947;SDS011;63257;55.082;38.772;2023-05-07T04:22:29;7.47;;;3.73;;
71947;SDS011;63257;55.082;38.772;2023-05-07T04:24:55;7.00;;;3.05;;
71947;SDS011;63257;55.082;38.772;2023-05-07T04:27:22;8.65;;;3.60;;
71947;SDS011;63257;55.082;38.772;2023-05-07T04:29:48;11.15;;;4.20;;
71947;SDS011;63257;55.082;38.772;2023-05-07T04:32:15;9.80;;;4.28;;
71947;SDS011;63257;55.082;38.772;2023-05-07T04:34:41;7.68;;;3.15;;
71947;SDS011;63257;55.082;38.772;2023-05-07T04:37:08;10.88;;;4.05;;
71947;SDS011;63257;55.082;38.772;2023-05-07T04:39:34;8.00;;;3.60;;
71947;SDS011;63257;55.082;38.772;2023-05-07T04:42:01;9.52;;;4.60;;
71947;SDS011;63257;55.082;38.772;2023-05-07T04:44:28;7.65;;;3.58;;
71947;SDS011;63257;55.082;38.772;2023-05-07T04:46:56;8.50;;;3.80;;
71947;SDS011;63257;55.082;38.772;2023-05-07T04:49:23;9.95;;;3.85;;
71947;SDS011;63257;55.082;38.772;2023-05-07T04:51:51;6.45;;;2.60;;
71947;SDS011;63257;55.082;38.772;2023-05-07T04:54:20;8.43;;;3.77;;
71947;SDS011;63257;55.082;38.772;2023-05-07T04:56:46;8.18;;;3.92;;
71947;SDS011;63257;55.082;38.772;2023-05-07T04:59:13;7.63;;;3.20;;
71947;SDS011;63257;55.082;38.772;2023-05-07T05:01:39;7.97;;;3.45;;
71947;SDS011;63257;55.082;38.772;2023-05-07T05:04:06;10.70;;;3.45;;
71947;SDS011;63257;55.082;38.772;2023-05-07T05:06:32;9.88;;;3.85;;
71947;SDS011;63257;55.082;38.772;2023-05-07T05:09:00;7.22;;;3.10;;
71947;SDS011;63257;55.082;38.772;2023-05-07T05:11:28;7.60;;;3.55;;
71947;SDS011;63257;55.082;38.772;2023-05-07T05:13:54;8.30;;;3.78;;
71947;SDS011;63257;55.082;38.772;2023-05-07T05:16:20;23.58;;;11.57;;
71947;SDS011;63257;55.082;38.772;2023-05-07T05:18:47;6.90;;;3.50;;
71947;SDS011;63257;55.082;38.772;2023-05-07T05:21:16;10.55;;;5.07;;
71947;SDS011;63257;55.082;38.772;2023-05-07T05:23:44;7.35;;;3.25;;
71947;SDS011;63257;55.082;38.772;2023-05-07T05:26:11;4.20;;;1.73;;
71947;SDS011;63257;55.082;38.772;2023-05-07T05:28:37;6.63;;;3.00;;
71947;SDS011;63257;55.082;38.772;2023-05-07T05:31:04;6.18;;;2.30;;
71947;SDS011;63257;55.082;38.772;2023-05-07T05:33:34;5.63;;;2.22;;
71947;SDS011;63257;55.082;38.772;2023-05-07T05:36:03;6.22;;;2.42;;
71947;SDS011;63257;55.082;38.772;2023-05-07T05:38:29;7.38;;;3.05;;
71947;SDS011;63257;55.082;38.772;2023-05-07T05:40:57;8.57;;;2.50;;
71947;SDS011;63257;55.082;38.772;2023-05-07T05:43:23;8.23;;;3.42;;
71947;SDS011;63257;55.082;38.772;2023-05-07T05:45:49;5.93;;;2.38;;
71947;SDS011;63257;55.082;38.772;2023-05-07T05:48:15;4.47;;;2.00;;
71947;SDS011;63257;55.082;38.772;2023-05-07T05:50:42;5.93;;;2.40;;
71947;SDS011;63257;55.082;38.772;2023-05-07T05:53:08;29.00;;;13.13;;
71947;SDS011;63257;55.082;38.772;2023-05-07T05:55:34;5.57;;;2.10;;
71947;SDS011;63257;55.082;38.772;2023-05-07T05:58:00;3.97;;;1.60;;
71947;SDS011;63257;55.082;38.772;2023-05-07T06:00:28;3.75;;;1.45;;
71947;SDS011;63257;55.082;38.772;2023-05-07T06:02:59;4.43;;;1.60;;
71947;SDS011;63257;55.082;38.772;2023-05-07T06:05:25;4.63;;;1.70;;
71947;SDS011;63257;55.082;38.772;2023-05-07T06:07:53;4.43;;;1.90;;
71947;SDS011;63257;55.082;38.772;2023-05-07T06:10:19;5.18;;;1.95;;
71947;SDS011;63257;55.082;38.772;2023-05-07T06:12:46;5.10;;;1.90;;
71947;SDS011;63257;55.082;38.772;2023-05-07T06:15:12;3.95;;;1.73;;
71947;SDS011;63257;55.082;38.772;2023-05-07T06:17:39;4.03;;;1.80;;
71947;SDS011;63257;55.082;38.772;2023-05-07T06:20:06;5.60;;;2.33;;
71947;SDS011;63257;55.082;38.772;2023-05-07T06:22:32;6.50;;;2.30;;
71947;SDS011;63257;55.082;38.772;2023-05-07T06:24:59;3.63;;;1.80;;
71947;SDS011;63257;55.082;38.772;2023-05-07T06:27:25;6.18;;;2.22;;
71947;SDS011;63257;55.082;38.772;2023-05-07T06:29:52;4.47;;;1.88;;
71947;SDS011;63257;55.082;38.772;2023-05-07T06:32:17;4.72;;;1.80;;
71947;SDS011;63257;55.082;38.772;2023-05-07T06:34:45;5.07;;;2.30;;
71947;SDS011;63257;55.082;38.772;2023-05-07T06:37:11;4.72;;;2.10;;
71947;SDS011;63257;55.082;38.772;2023-05-07T06:39:57;5.20;;;2.40;;
71947;SDS011;63257;55.082;38.772;2023-05-07T06:42:23;4.50;;;2.30;;
71947;SDS011;63257;55.082;38.772;2023-05-07T06:44:49;5.28;;;2.53;;
71947;SDS011;63257;55.082;38.772;2023-05-07T06:47:17;6.50;;;2.38;;
71947;SDS011;63257;55.082;38.772;2023-05-07T06:49:46;5.88;;;2.50;;
71947;SDS011;63257;55.082;38.772;2023-05-07T06:52:15;5.40;;;2.33;;
71947;SDS011;63257;55.082;38.772;2023-05-07T06:54:41;4.63;;;2.10;;
71947;SDS011;63257;55.082;38.772;2023-05-07T06:57:08;4.57;;;2.13;;
71947;SDS011;63257;55.082;38.772;2023-05-07T06:59:34;5.40;;;2.30;;
71947;SDS011;63257;55.082;38.772;2023-05-07T07:02:00;4.75;;;2.33;;
71947;SDS011;63257;55.082;38.772;2023-05-07T07:04:26;6.07;;;2.35;;
71947;SDS011;63257;55.082;38.772;2023-05-07T07:07:00;4.73;;;2.07;;
71947;SDS011;63257;55.082;38.772;2023-05-07T07:09:27;3.60;;;1.40;;
71947;SDS011;63257;55.082;38.772;2023-05-07T07:11:54;5.07;;;2.28;;
71947;SDS011;63257;55.082;38.772;2023-05-07T07:14:20;4.32;;;2.00;;
71947;SDS011;63257;55.082;38.772;2023-05-07T07:16:49;5.07;;;2.17;;
71947;SDS011;63257;55.082;38.772;2023-05-07T07:19:17;4.45;;;2.30;;
71947;SDS011;63257;55.082;38.772;2023-05-07T07:21:45;4.13;;;1.90;;
71947;SDS011;63257;55.082;38.772;2023-05-07T07:24:13;4.67;;;2.03;;
71947;SDS011;63257;55.082;38.772;2023-05-07T07:26:44;5.00;;;2.15;;
71947;SDS011;63257;55.082;38.772;2023-05-07T07:29:11;5.13;;;1.70;;
71947;SDS011;63257;55.082;38.772;2023-05-07T07:31:38;4.23;;;1.83;;
71947;SDS011;63257;55.082;38.772;2023-05-07T07:34:04;4.97;;;1.70;;
71947;SDS011;63257;55.082;38.772;2023-05-07T07:36:30;5.65;;;1.70;;
71947;SDS011;63257;55.082;38.772;2023-05-07T07:38:56;4.67;;;1.90;;
71947;SDS011;63257;55.082;38.772;2023-05-07T07:41:22;4.25;;;2.08;;
71947;SDS011;63257;55.082;38.772;2023-05-07T07:43:48;4.53;;;2.20;;
71947;SDS011;63257;55.082;38.772;2023-05-07T07:46:15;4.70;;;2.20;;
71947;SDS011;63257;55.082;38.772;2023-05-07T07:48:42;5.90;;;2.20;;
71947;SDS011;63257;55.082;38.772;2023-05-07T07:51:07;4.43;;;2.10;;
71947;SDS011;63257;55.082;38.772;2023-05-07T07:53:33;5.33;;;2.13;;
71947;SDS011;63257;55.082;38.772;2023-05-07T07:55:59;4.65;;;2.40;;
71947;SDS011;63257;55.082;38.772;2023-05-07T07:58:29;5.07;;;2.25;;
71947;SDS011;63257;55.082;38.772;2023-05-07T08:00:55;6.38;;;2.08;;
71947;SDS011;63257;55.082;38.772;2023-05-07T08:03:22;4.78;;;2.30;;
71947;SDS011;63257;55.082;38.772;2023-05-07T08:05:51;5.53;;;2.60;;
71947;SDS011;63257;55.082;38.772;2023-05-07T08:08:17;5.07;;;2.15;;
71947;SDS011;63257;55.082;38.772;2023-05-07T08:10:43;4.38;;;2.30;;
71947;SDS011;63257;55.082;38.772;2023-05-07T08:13:17;5.97;;;2.25;;
71947;SDS011;63257;55.082;38.772;2023-05-07T08:15:43;3.80;;;2.03;;
71947;SDS011;63257;55.082;38.772;2023-05-07T08:18:10;4.35;;;2.15;;
71947;SDS011;63257;55.082;38.772;2023-05-07T08:20:37;4.25;;;2.00;;
71947;SDS011;63257;55.082;38.772;2023-05-07T08:23:07;4.03;;;1.73;;
71947;SDS011;63257;55.082;38.772;2023-05-07T08:25:33;4.70;;;2.20;;
71947;SDS011;63257;55.082;38.772;2023-05-07T08:28:00;4.72;;;2.15;;
71947;SDS011;63257;55.082;38.772;2023-05-07T08:30:26;4.40;;;1.70;;
71947;SDS011;63257;55.082;38.772;2023-05-07T08:32:53;3.60;;;1.70;;
71947;SDS011;63257;55.082;38.772;2023-05-07T08:35:19;4.63;;;2.17;;
71947;SDS011;63257;55.082;38.772;2023-05-07T08:37:45;5.93;;;2.40;;
71947;SDS011;63257;55.082;38.772;2023-05-07T08:40:11;4.57;;;2.20;;
71947;SDS011;63257;55.082;38.772;2023-05-07T08:42:38;5.75;;;2.20;;
71947;SDS011;63257;55.082;38.772;2023-05-07T08:45:09;4.68;;;2.35;;
71947;SDS011;63257;55.082;38.772;2023-05-07T08:47:47;5.40;;;2.78;;
71947;SDS011;63257;55.082;38.772;2023-05-07T08:50:20;6.23;;;2.40;;
71947;SDS011;63257;55.082;38.772;2023-05-07T08:52:47;5.53;;;2.60;;
71947;SDS011;63257;55.082;38.772;2023-05-07T08:55:15;6.20;;;2.65;;
71947;SDS011;63257;55.082;38.772;2023-05-07T08:57:43;5.27;;;2.00;;
71947;SDS011;63257;55.082;38.772;2023-05-07T09:00:11;5.20;;;2.10;;
71947;SDS011;63257;55.082;38.772;2023-05-07T09:02:38;4.00;;;2.20;;
71947;SDS011;63257;55.082;38.772;2023-05-07T09:05:06;3.60;;;1.73;;
71947;SDS011;63257;55.082;38.772;2023-05-07T09:07:36;3.92;;;1.90;;
71947;SDS011;63257;55.082;38.772;2023-05-07T09:10:04;5.82;;;2.72;;
71947;SDS011;63257;55.082;38.772;2023-05-07T09:12:33;5.45;;;2.40;;
71947;SDS011;63257;55.082;38.772;2023-05-07T09:15:01;7.27;;;3.20;;
71947;SDS011;63257;55.082;38.772;2023-05-07T09:17:36;4.88;;;2.33;;
71947;SDS011;63257;55.082;38.772;2023-05-07T09:20:04;4.35;;;2.60;;
71947;SDS011;63257;55.082;38.772;2023-05-07T09:22:33;5.03;;;2.50;;
71947;SDS011;63257;55.082;38.772;2023-05-07T09:25:04;4.43;;;2.17;;
71947;SDS011;63257;55.082;38.772;2023-05-07T09:27:31;5.55;;;2.60;;
71947;SDS011;63257;55.082;38.772;2023-05-07T09:29:58;5.03;;;2.00;;
71947;SDS011;63257;55.082;38.772;2023-05-07T09:32:24;4.80;;;2.30;;
71947;SDS011;63257;55.082;38.772;2023-05-07T09:34:53;5.00;;;2.30;;
71947;SDS011;63257;55.082;38.772;2023-05-07T09:37:22;5.70;;;2.45;;
71947;SDS011;63257;55.082;38.772;2023-05-07T09:39:51;4.78;;;2.67;;
71947;SDS011;63257;55.082;38.772;2023-05-07T09:42:24;6.03;;;2.53;;
71947;SDS011;63257;55.082;38.772;2023-05-07T09:44:55;4.13;;;2.25;;
71947;SDS011;63257;55.082;38.772;2023-05-07T09:47:25;3.67;;;1.55;;
71947;SDS011;63257;55.082;38.772;2023-05-07T09:49:57;6.40;;;2.60;;
71947;SDS011;63257;55.082;38.772;2023-05-07T09:52:30;6.43;;;2.60;;
71947;SDS011;63257;55.082;38.772;2023-05-07T09:55:00;7.07;;;2.50;;
71947;SDS011;63257;55.082;38.772;2023-05-07T09:57:31;4.78;;;2.38;;
71947;SDS011;63257;55.082;38.772;2023-05-07T10:00:02;4.80;;;2.30;;
71947;SDS011;63257;55.082;38.772;2023-05-07T10:02:47;6.15;;;2.45;;
71947;SDS011;63257;55.082;38.772;2023-05-07T10:05:19;4.70;;;2.70;;
71947;SDS011;63257;55.082;38.772;2023-05-07T10:07:48;4.20;;;1.90;;
71947;SDS011;63257;55.082;38.772;2023-05-07T10:10:15;4.82;;;2.38;;
71947;SDS011;63257;55.082;38.772;2023-05-07T10:12:44;5.10;;;2.17;;
71947;SDS011;63257;55.082;38.772;2023-05-07T10:15:16;4.50;;;2.22;;
71947;SDS011;63257;55.082;38.772;2023-05-07T10:17:49;5.50;;;2.43;;
71947;SDS011;63257;55.082;38.772;2023-05-07T10:20:17;4.30;;;2.13;;
71947;SDS011;63257;55.082;38.772;2023-05-07T10:22:45;4.40;;;2.35;;
71947;SDS011;63257;55.082;38.772;2023-05-07T10:25:30;6.20;;;3.00;;
71947;SDS011;63257;55.082;38.772;2023-05-07T10:28:04;4.30;;;1.87;;
71947;SDS011;63257;55.082;38.772;2023-05-07T10:33:56;4.95;;;2.10;;
71947;SDS011;63257;55.082;38.772;2023-05-07T10:36:25;5.95;;;2.20;;
71947;SDS011;63257;55.082;38.772;2023-05-07T10:38:52;4.28;;;2.10;;
71947;SDS011;63257;55.082;38.772;2023-05-07T10:41:19;4.55;;;2.38;;
71947;SDS011;63257;55.082;38.772;2023-05-07T10:43:46;5.57;;;2.83;;
71947;SDS011;63257;55.082;38.772;2023-05-07T10:46:23;4.77;;;2.63;;
71947;SDS011;63257;55.082;38.772;2023-05-07T10:49:13;4.95;;;2.85;;
71947;SDS011;63257;55.082;38.772;2023-05-07T10:57:41;6.32;;;2.58;;
71947;SDS011;63257;55.082;38.772;2023-05-07T11:05:26;5.10;;;2.53;;
71947;SDS011;63257;55.082;38.772;2023-05-07T11:08:03;7.68;;;3.40;;
71947;SDS011;63257;55.082;38.772;2023-05-07T11:10:54;5.27;;;3.20;;
71947;SDS011;63257;55.082;38.772;2023-05-07T11:13:47;4.95;;;3.30;;
71947;SDS011;63257;55.082;38.772;2023-05-07T11:16:33;5.20;;;2.80;;
71947;SDS011;63257;55.082;38.772;2023-05-07T11:19:47;5.07;;;2.90;;
71947;SDS011;63257;55.082;38.772;2023-05-07T11:25:19;6.80;;;3.50;;
71947;SDS011;63257;55.082;38.772;2023-05-07T11:27:50;5.03;;;3.35;;
71947;SDS011;63257;55.082;38.772;2023-05-07T11:30:19;4.63;;;3.65;;
71947;SDS011;63257;55.082;38.772;2023-05-07T11:32:47;5.90;;;3.55;;
71947;SDS011;63257;55.082;38.772;2023-05-07T11:35:15;5.32;;;3.90;;
71947;SDS011;63257;55.082;38.772;2023-05-07T11:37:41;4.70;;;3.43;;
71947;SDS011;63257;55.082;38.772;2023-05-07T11:40:09;6.55;;;2.63;;
71947;SDS011;63257;55.082;38.772;2023-05-07T11:42:40;4.90;;;3.00;;
71947;SDS011;63257;55.082;38.772;2023-05-07T11:45:08;5.65;;;2.83;;
71947;SDS011;63257;55.082;38.772;2023-05-07T11:47:34;6.28;;;3.00;;
71947;SDS011;63257;55.082;38.772;2023-05-07T11:50:05;4.97;;;2.50;;
71947;SDS011;63257;55.082;38.772;2023-05-07T11:52:34;5.10;;;2.50;;
71947;SDS011;63257;55.082;38.772;2023-05-07T11:55:00;12.07;;;3.00;;
71947;SDS011;63257;55.082;38.772;2023-05-07T11:57:32;4.78;;;2.80;;
71947;SDS011;63257;55.082;38.772;2023-05-07T11:59:59;5.50;;;2.40;;
71947;SDS011;63257;55.082;38.772;2023-05-07T12:02:33;4.65;;;2.47;;
71947;SDS011;63257;55.082;38.772;2023-05-07T12:05:00;5.65;;;2.88;;
71947;SDS011;63257;55.082;38.772;2023-05-07T12:07:32;4.78;;;3.10;;
71947;SDS011;63257;55.082;38.772;2023-05-07T12:09:59;5.27;;;3.43;;
71947;SDS011;63257;55.082;38.772;2023-05-07T12:12:25;4.75;;;3.67;;
71947;SDS011;63257;55.082;38.772;2023-05-07T12:14:52;5.55;;;3.60;;
71947;SDS011;63257;55.082;38.772;2023-05-07T12:17:18;5.28;;;3.90;;
71947;SDS011;63257;55.082;38.772;2023-05-07T12:19:44;5.17;;;3.70;;
71947;SDS011;63257;55.082;38.772;2023-05-07T12:22:10;4.82;;;3.63;;
71947;SDS011;63257;55.082;38.772;2023-05-07T12:24:44;6.03;;;3.00;;
71947;SDS011;63257;55.082;38.772;2023-05-07T12:27:11;5.35;;;3.17;;
71947;SDS011;63257;55.082;38.772;2023-05-07T12:29:37;6.13;;;2.70;;
71947;SDS011;63257;55.082;38.772;2023-05-07T12:32:06;4.55;;;2.80;;
71947;SDS011;63257;55.082;38.772;2023-05-07T12:34:32;5.68;;;2.80;;
71947;SDS011;63257;55.082;38.772;2023-05-07T12:37:01;5.25;;;2.55;;
71947;SDS011;63257;55.082;38.772;2023-05-07T12:39:29;4.82;;;2.55;;
71947;SDS011;63257;55.082;38.772;2023-05-07T12:41:55;6.90;;;2.50;;
71947;SDS011;63257;55.082;38.772;2023-05-07T12:44:30;6.03;;;2.83;;
71947;SDS011;63257;55.082;38.772;2023-05-07T12:47:02;6.10;;;3.20;;
71947;SDS011;63257;55.082;38.772;2023-05-07T12:49:28;5.38;;;3.67;;
71947;SDS011;63257;55.082;38.772;2023-05-07T12:51:54;5.93;;;4.40;;
71947;SDS011;63257;55.082;38.772;2023-05-07T12:54:27;4.82;;;2.60;;
71947;SDS011;63257;55.082;38.772;2023-05-07T12:57:01;5.57;;;2.60;;
71947;SDS011;63257;55.082;38.772;2023-05-07T12:59:36;4.72;;;2.60;;
71947;SDS011;63257;55.082;38.772;2023-05-07T13:02:02;4.40;;;2.15;;
71947;SDS011;63257;55.082;38.772;2023-05-07T13:04:28;5.60;;;2.50;;
71947;SDS011;63257;55.082;38.772;2023-05-07T13:06:55;5.28;;;2.40;;
71947;SDS011;63257;55.082;38.772;2023-05-07T13:09:21;6.13;;;2.60;;
71947;SDS011;63257;55.082;38.772;2023-05-07T13:11:46;7.88;;;2.83;;
71947;SDS011;63257;55.082;38.772;2023-05-07T13:14:13;4.20;;;2.53;;
71947;SDS011;63257;55.082;38.772;2023-05-07T13:16:38;5.25;;;2.55;;
71947;SDS011;63257;55.082;38.772;2023-05-07T13:19:04;5.55;;;2.50;;
71947;SDS011;63257;55.082;38.772;2023-05-07T13:21:30;5.25;;;2.30;;
71947;SDS011;63257;55.082;38.772;2023-05-07T13:23:59;5.17;;;2.70;;
71947;SDS011;63257;55.082;38.772;2023-05-07T13:26:25;4.55;;;2.40;;
71947;SDS011;63257;55.082;38.772;2023-05-07T13:28:55;7.15;;;2.63;;
71947;SDS011;63257;55.082;38.772;2023-05-07T13:31:21;5.32;;;2.75;;
71947;SDS011;63257;55.082;38.772;2023-05-07T13:33:47;6.57;;;2.40;;
71947;SDS011;63257;55.082;38.772;2023-05-07T13:36:13;5.03;;;2.92;;
71947;SDS011;63257;55.082;38.772;2023-05-07T13:38:39;6.38;;;4.15;;
71947;SDS011;63257;55.082;38.772;2023-05-07T13:41:05;5.00;;;3.90;;
71947;SDS011;63257;55.082;38.772;2023-05-07T13:43:31;5.53;;;3.13;;
71947;SDS011;63257;55.082;38.772;2023-05-07T13:45:59;5.32;;;4.22;;
71947;SDS011;63257;55.082;38.772;2023-05-07T13:48:26;7.10;;;4.00;;
71947;SDS011;63257;55.082;38.772;2023-05-07T13:50:54;5.68;;;3.83;;
71947;SDS011;63257;55.082;38.772;2023-05-07T13:53:20;4.60;;;3.50;;
71947;SDS011;63257;55.082;38.772;2023-05-07T13:55:46;4.75;;;2.90;;
71947;SDS011;63257;55.082;38.772;2023-05-07T13:58:13;6.25;;;2.80;;
71947;SDS011;63257;55.082;38.772;2023-05-07T14:00:39;4.53;;;2.80;;
71947;SDS011;63257;55.082;38.772;2023-05-07T14:03:05;5.80;;;3.00;;
71947;SDS011;63257;55.082;38.772;2023-05-07T14:05:31;5.30;;;4.00;;
71947;SDS011;63257;55.082;38.772;2023-05-07T14:07:57;4.95;;;3.50;;
71947;SDS011;63257;55.082;38.772;2023-05-07T14:10:24;7.10;;;4.20;;
71947;SDS011;63257;55.082;38.772;2023-05-07T14:12:51;5.20;;;3.28;;
71947;SDS011;63257;55.082;38.772;2023-05-07T14:15:18;13.02;;;6.80;;
71947;SDS011;63257;55.082;38.772;2023-05-07T14:17:44;8.35;;;3.90;;
71947;SDS011;63257;55.082;38.772;2023-05-07T14:20:11;4.70;;;2.83;;
71947;SDS011;63257;55.082;38.772;2023-05-07T14:22:38;6.43;;;2.90;;
71947;SDS011;63257;55.082;38.772;2023-05-07T14:25:04;4.82;;;2.53;;
71947;SDS011;63257;55.082;38.772;2023-05-07T14:27:33;5.10;;;2.90;;
71947;SDS011;63257;55.082;38.772;2023-05-07T14:29:59;6.07;;;3.00;;
71947;SDS011;63257;55.082;38.772;2023-05-07T14:32:26;7.55;;;3.30;;
71947;SDS011;63257;55.082;38.772;2023-05-07T14:34:52;4.97;;;2.53;;
71947;SDS011;63257;55.082;38.772;2023-05-07T14:37:18;6.53;;;2.85;;
71947;SDS011;63257;55.082;38.772;2023-05-07T14:39:45;5.75;;;2.70;;
71947;SDS011;63257;55.082;38.772;2023-05-07T14:42:11;5.47;;;2.60;;
71947;SDS011;63257;55.082;38.772;2023-05-07T14:44:38;4.68;;;2.70;;
71947;SDS011;63257;55.082;38.772;2023-05-07T14:47:07;5.28;;;2.60;;
71947;SDS011;63257;55.082;38.772;2023-05-07T14:49:33;7.23;;;3.20;;
71947;SDS011;63257;55.082;38.772;2023-05-07T14:52:00;5.93;;;3.10;;
71947;SDS011;63257;55.082;38.772;2023-05-07T14:54:26;6.13;;;2.88;;
71947;SDS011;63257;55.082;38.772;2023-05-07T14:56:52;5.05;;;2.67;;